Terminal Aerodrome Forecast
Issued by NWS La Crosse, WI

Home | Current Version | Previous Version | Text Only | Print | Product List | Glossary On
Versions: 1 2 3 4 5 6 7 8 9 10 11 12 13 14 15 16 17 18 19 20 21 22 23 24 25
189
FTUS43 KARX 061732
TAFRST
TAF
KRST 061732Z 0618/0718 26017G24KT P6SM SKC
     FM070000 24012KT P6SM VCSH SCT100
     FM070300 26010KT P6SM SCT100
     FM070600 32011KT P6SM VCSH BKN070
     FM071200 36012KT P6SM SCT100=

USA.gov is the U.S. government's official web portal to all federal, state and local government web resources and services.